createdAt,value
2022-12-27T00:00:05.614Z,7.71
2022-12-27T00:01:11.442Z,7.72
2022-12-27T00:02:13.468Z,7.73
2022-12-27T00:03:15.400Z,7.71
2022-12-27T00:04:17.216Z,7.67
2022-12-27T00:05:20.177Z,7.65
2022-12-27T00:06:23.057Z,7.65
2022-12-27T00:07:24.969Z,7.65
2022-12-27T00:08:26.778Z,7.63
2022-12-27T00:09:28.694Z,7.63
2022-12-27T00:10:30.512Z,7.63
2022-12-27T00:11:32.654Z,7.63
2022-12-27T00:12:34.480Z,7.66
2022-12-27T00:13:36.373Z,7.60
2022-12-27T00:14:38.177Z,7.53
2022-12-27T00:15:41.351Z,7.48
2022-12-27T00:16:43.241Z,7.50
2022-12-27T00:17:45.139Z,7.51
2022-12-27T00:18:47.600Z,7.50
2022-12-27T00:19:49.489Z,7.50
2022-12-27T00:20:56.714Z,7.52
2022-12-27T00:21:58.590Z,7.54
2022-12-27T00:23:01.777Z,7.57
2022-12-27T00:24:03.813Z,7.59
2022-12-27T00:25:05.890Z,7.59
2022-12-27T00:26:18.285Z,7.56
2022-12-27T00:27:20.254Z,7.54
2022-12-27T00:28:21.997Z,7.53
2022-12-27T00:29:23.808Z,7.54
2022-12-27T00:30:25.596Z,7.53
2022-12-27T00:31:29.262Z,7.54
2022-12-27T00:32:31.236Z,7.54
2022-12-27T00:33:34.699Z,7.52
2022-12-27T00:34:36.546Z,7.54
2022-12-27T00:35:41.441Z,7.55
2022-12-27T00:36:43.391Z,7.57
2022-12-27T00:37:45.274Z,7.57
2022-12-27T00:38:47.211Z,7.57
2022-12-27T00:39:49.028Z,7.58
2022-12-27T00:40:50.829Z,7.58
2022-12-27T00:41:54.335Z,7.55
2022-12-27T00:42:56.072Z,7.55
2022-12-27T00:43:57.832Z,7.56
2022-12-27T00:44:59.656Z,7.57
2022-12-27T00:46:01.758Z,7.58
2022-12-27T00:47:04.269Z,7.59
2022-12-27T00:48:06.268Z,7.61
2022-12-27T00:49:08.049Z,7.60
2022-12-27T00:50:09.956Z,7.61
2022-12-27T00:51:13.847Z,7.61
2022-12-27T00:52:15.910Z,7.59
2022-12-27T00:53:17.756Z,7.59
2022-12-27T00:54:19.575Z,7.59
2022-12-27T00:55:21.493Z,7.60
2022-12-27T00:56:24.739Z,7.57
2022-12-27T00:57:26.537Z,7.54
2022-12-27T00:58:28.414Z,7.53
2022-12-27T00:59:30.146Z,7.53
2022-12-27T01:00:32.001Z,7.46
2022-12-27T01:01:35.754Z,7.40
2022-12-27T01:02:37.849Z,7.34
2022-12-27T01:03:39.929Z,7.29
2022-12-27T01:04:41.755Z,7.27
2022-12-27T01:05:43.620Z,7.25
2022-12-27T01:06:45.431Z,7.21
2022-12-27T01:07:47.305Z,7.21
2022-12-27T01:08:49.414Z,7.20
2022-12-27T01:09:51.222Z,7.17
2022-12-27T01:10:53.038Z,7.13
2022-12-27T01:11:54.849Z,7.07
2022-12-27T01:12:57.291Z,7.10
2022-12-27T01:14:00.499Z,7.12
2022-12-27T01:15:02.606Z,7.15
2022-12-27T01:16:30.628Z,7.17
2022-12-27T01:17:32.457Z,7.19
2022-12-27T01:18:34.390Z,7.23
2022-12-27T01:19:36.933Z,7.27
2022-12-27T01:20:38.960Z,7.30
2022-12-27T01:21:40.705Z,7.29
2022-12-27T01:22:42.475Z,7.30
2022-12-27T01:23:44.398Z,7.32
2022-12-27T01:24:46.168Z,7.33
2022-12-27T01:25:47.963Z,7.34
2022-12-27T01:26:49.782Z,7.34
2022-12-27T01:27:51.561Z,7.32
2022-12-27T01:28:54.297Z,7.31
2022-12-27T01:29:56.121Z,7.31
2022-12-27T01:30:58.398Z,7.33
2022-12-27T01:32:00.236Z,7.34
2022-12-27T01:33:02.130Z,7.30
2022-12-27T01:34:04.311Z,7.31
2022-12-27T01:35:06.203Z,7.33
2022-12-27T01:36:18.680Z,7.35
2022-12-27T01:37:20.500Z,7.36
2022-12-27T01:38:22.259Z,7.38
2022-12-27T01:39:25.373Z,7.40
2022-12-27T01:40:27.191Z,7.42
2022-12-27T01:42:07.694Z,7.45
2022-12-27T01:43:16.998Z,7.44
2022-12-27T01:44:37.458Z,7.43
2022-12-27T01:45:39.287Z,7.46
2022-12-27T01:46:41.721Z,7.46
2022-12-27T01:47:43.496Z,7.46
2022-12-27T01:48:46.055Z,7.47
2022-12-27T01:49:56.177Z,7.47
2022-12-27T01:51:01.384Z,7.45
2022-12-27T01:52:03.251Z,7.45
2022-12-27T01:53:05.068Z,7.42
2022-12-27T01:54:06.980Z,7.41
2022-12-27T01:55:19.535Z,7.42
2022-12-27T01:56:26.679Z,7.43
2022-12-27T01:57:29.078Z,7.44
2022-12-27T01:58:40.554Z,7.44
2022-12-27T01:59:42.645Z,7.44
2022-12-27T02:00:45.647Z,7.46
2022-12-27T02:01:48.136Z,7.48
2022-12-27T02:02:51.134Z,7.50
2022-12-27T02:03:56.033Z,7.50
2022-12-27T02:04:58.018Z,7.47
2022-12-27T02:06:01.013Z,7.43
2022-12-27T02:07:02.797Z,7.37
2022-12-27T02:08:13.463Z,7.34
2022-12-27T02:09:35.534Z,7.35
2022-12-27T02:10:37.586Z,7.36
2022-12-27T02:11:51.469Z,7.36
2022-12-27T02:12:53.356Z,7.32
2022-12-27T02:13:55.163Z,7.31
2022-12-27T02:14:56.969Z,7.30
2022-12-27T02:15:58.810Z,7.26
2022-12-27T02:17:04.035Z,7.24
2022-12-27T02:18:05.889Z,7.22
2022-12-27T02:19:17.995Z,7.24
2022-12-27T02:20:21.862Z,7.29
2022-12-27T02:21:53.021Z,7.32
2022-12-27T02:23:25.593Z,7.37
2022-12-27T02:24:30.364Z,7.39
2022-12-27T02:25:59.768Z,7.40
2022-12-27T02:27:05.409Z,7.41
2022-12-27T02:28:09.987Z,7.43
2022-12-27T02:29:14.786Z,7.44
2022-12-27T02:30:16.729Z,7.44
2022-12-27T02:31:21.479Z,7.45
2022-12-27T02:32:26.015Z,7.43
2022-12-27T02:33:30.480Z,7.43
2022-12-27T02:34:38.538Z,7.43
2022-12-27T02:35:43.430Z,7.45
2022-12-27T02:36:46.729Z,7.38
2022-12-27T02:37:52.220Z,7.35
2022-12-27T02:38:56.449Z,7.32
2022-12-27T02:40:20.107Z,7.34
2022-12-27T02:41:40.601Z,7.36
2022-12-27T02:43:00.796Z,7.37
2022-12-27T02:44:20.916Z,7.40
2022-12-27T02:45:43.394Z,7.40
2022-12-27T02:47:04.507Z,7.38
2022-12-27T02:48:29.359Z,7.40
2022-12-27T02:49:57.064Z,7.43
2022-12-27T02:51:42.057Z,7.44
2022-12-27T02:53:05.458Z,7.45
2022-12-27T02:54:15.729Z,7.45
2022-12-27T02:55:36.111Z,7.43
2022-12-27T02:57:08.688Z,7.43
2022-12-27T02:58:25.695Z,7.42
2022-12-27T02:59:30.551Z,7.43
2022-12-27T03:00:56.054Z,7.41
2022-12-27T03:02:19.437Z,7.38
2022-12-27T03:03:24.659Z,7.35
2022-12-27T03:04:29.154Z,7.32
2022-12-27T03:05:41.351Z,7.31
2022-12-27T03:06:43.221Z,7.30
2022-12-27T03:08:03.541Z,7.27
2022-12-27T03:09:42.873Z,7.25
2022-12-27T03:11:02.962Z,7.26
2022-12-27T03:12:28.661Z,7.30
2022-12-27T03:13:53.695Z,7.34
2022-12-27T03:15:17.313Z,7.37
2022-12-27T03:16:40.461Z,7.38
2022-12-27T03:17:46.514Z,7.39
2022-12-27T03:19:02.441Z,7.38
2022-12-27T03:20:26.565Z,7.40
2022-12-27T03:21:51.877Z,7.41
2022-12-27T03:23:13.963Z,7.41
2022-12-27T03:24:37.160Z,7.39
2022-12-27T03:25:40.573Z,7.39
2022-12-27T03:26:48.873Z,7.37
2022-12-27T03:28:12.511Z,7.37
2022-12-27T03:29:35.334Z,7.37
2022-12-27T03:30:56.638Z,7.39
2022-12-27T03:32:18.507Z,7.41
2022-12-27T03:33:20.471Z,7.41
2022-12-27T03:34:38.619Z,7.44
2022-12-27T03:35:40.382Z,7.44
2022-12-27T03:37:01.225Z,7.43
2022-12-27T03:38:04.103Z,7.41
2022-12-27T03:39:05.917Z,7.40
2022-12-27T03:40:19.159Z,7.39
2022-12-27T03:41:49.736Z,7.37
2022-12-27T03:43:11.514Z,7.33
2022-12-27T03:44:25.525Z,7.31
2022-12-27T03:45:50.027Z,7.31
2022-12-27T03:47:14.916Z,7.31
2022-12-27T03:48:20.373Z,7.31
2022-12-27T03:49:33.327Z,7.28
2022-12-27T03:50:40.672Z,7.25
2022-12-27T03:51:45.175Z,7.24
2022-12-27T03:53:08.445Z,7.20
2022-12-27T03:54:17.250Z,7.08
2022-12-27T03:55:19.535Z,7.09
2022-12-27T03:56:21.585Z,7.09
2022-12-27T03:57:24.997Z,7.08
2022-12-27T03:58:26.764Z,7.09
2022-12-27T03:59:29.209Z,7.07
2022-12-27T04:00:31.259Z,7.08
2022-12-27T04:01:33.078Z,7.11
2022-12-27T04:02:35.048Z,7.11
2022-12-27T04:03:37.038Z,7.11
2022-12-27T04:04:39.350Z,7.10
2022-12-27T04:05:41.154Z,7.08
2022-12-27T04:06:42.973Z,7.08
2022-12-27T04:08:03.116Z,7.09
2022-12-27T04:09:23.136Z,6.99
2022-12-27T04:10:43.457Z,6.95
2022-12-27T04:12:03.614Z,6.95
2022-12-27T04:13:23.656Z,6.95
2022-12-27T04:14:43.777Z,6.83
2022-12-27T04:16:03.953Z,6.73
2022-12-27T04:17:24.011Z,6.79
2022-12-27T04:18:43.994Z,6.81
2022-12-27T04:20:04.260Z,6.86
2022-12-27T04:21:24.556Z,6.89
2022-12-27T04:22:44.711Z,6.91
2022-12-27T04:24:04.952Z,6.91
2022-12-27T04:25:25.544Z,6.88
2022-12-27T04:26:45.783Z,6.86
2022-12-27T04:28:06.301Z,6.85
2022-12-27T04:29:26.360Z,6.82
2022-12-27T04:30:46.605Z,6.82
2022-12-27T04:32:06.875Z,6.85
2022-12-27T04:33:27.061Z,6.81
2022-12-27T04:34:43.964Z,6.81
2022-12-27T04:35:45.925Z,6.77
2022-12-27T04:36:47.760Z,6.76
2022-12-27T04:37:49.641Z,6.75
2022-12-27T04:38:51.516Z,6.72
2022-12-27T04:40:11.667Z,6.71
2022-12-27T04:41:31.870Z,6.71
2022-12-27T04:42:52.501Z,6.70
2022-12-27T04:44:12.577Z,6.70
2022-12-27T04:45:32.580Z,6.70
2022-12-27T04:46:53.162Z,6.68
2022-12-27T04:48:13.365Z,6.64
2022-12-27T04:49:41.773Z,6.61
2022-12-27T04:51:01.921Z,6.68
2022-12-27T04:52:24.614Z,6.71
2022-12-27T04:53:44.846Z,6.75
2022-12-27T04:54:58.409Z,6.76
2022-12-27T04:56:00.366Z,6.74
2022-12-27T04:57:02.180Z,6.73
2022-12-27T04:58:03.962Z,6.74
2022-12-27T04:59:24.362Z,6.75
2022-12-27T05:00:47.523Z,6.72
2022-12-27T05:02:04.547Z,6.74
2022-12-27T05:03:08.556Z,6.72
2022-12-27T05:04:10.591Z,6.72
2022-12-27T05:05:12.533Z,6.72
2022-12-27T05:06:14.688Z,6.72
2022-12-27T05:07:35.737Z,6.74
2022-12-27T05:08:56.010Z,6.72
2022-12-27T05:10:17.641Z,6.70
2022-12-27T05:11:37.776Z,6.66
2022-12-27T05:12:58.017Z,6.59
2022-12-27T05:14:00.043Z,6.56
2022-12-27T05:15:01.936Z,6.52
2022-12-27T05:16:03.927Z,6.47
2022-12-27T05:17:05.769Z,6.45
2022-12-27T05:18:07.611Z,6.41
2022-12-27T05:19:10.516Z,6.38
2022-12-27T05:20:12.420Z,6.35
2022-12-27T05:21:14.306Z,6.34
2022-12-27T05:22:34.717Z,6.29
2022-12-27T05:24:00.239Z,6.31
2022-12-27T05:25:25.628Z,6.34
2022-12-27T05:26:28.962Z,6.31
2022-12-27T05:27:30.836Z,6.29
2022-12-27T05:28:32.683Z,6.31
2022-12-27T05:29:36.354Z,6.31
2022-12-27T05:30:40.709Z,6.31
2022-12-27T05:31:42.565Z,6.31
2022-12-27T05:32:44.351Z,6.31
2022-12-27T05:33:46.229Z,6.31
2022-12-27T05:34:48.003Z,6.33
2022-12-27T05:35:49.803Z,6.34
2022-12-27T05:36:51.665Z,6.35
2022-12-27T05:37:55.175Z,6.34
2022-12-27T05:38:57.982Z,6.32
2022-12-27T05:39:59.794Z,6.29
2022-12-27T05:41:02.114Z,6.28
2022-12-27T05:42:04.076Z,6.28
2022-12-27T05:43:05.962Z,6.28
2022-12-27T05:44:07.916Z,6.23
2022-12-27T05:45:09.702Z,6.20
2022-12-27T05:46:13.516Z,6.23
2022-12-27T05:47:15.374Z,6.20
2022-12-27T05:48:17.192Z,6.13
2022-12-27T05:49:19.034Z,6.09
2022-12-27T05:50:21.302Z,6.12
2022-12-27T05:51:23.178Z,6.12
2022-12-27T05:52:25.119Z,6.05
2022-12-27T05:53:26.998Z,6.07
2022-12-27T05:54:28.853Z,6.08
2022-12-27T05:55:30.780Z,6.04
2022-12-27T05:56:35.629Z,6.04
2022-12-27T05:57:37.479Z,6.03
2022-12-27T05:58:39.272Z,6.05
2022-12-27T05:59:41.098Z,6.02
2022-12-27T06:00:43.782Z,5.95
2022-12-27T06:01:45.688Z,5.93
2022-12-27T06:02:48.026Z,5.95
2022-12-27T06:03:49.918Z,5.96
2022-12-27T06:04:51.799Z,5.99
2022-12-27T06:05:59.643Z,6.02
2022-12-27T06:07:01.507Z,5.98
2022-12-27T06:08:03.373Z,5.95
2022-12-27T06:09:05.175Z,5.93
2022-12-27T06:10:07.899Z,5.94
2022-12-27T06:11:15.732Z,5.91
2022-12-27T06:12:17.633Z,5.86
2022-12-27T06:13:19.443Z,5.84
2022-12-27T06:14:21.304Z,5.84
2022-12-27T06:15:23.135Z,5.81
2022-12-27T06:16:25.894Z,5.79
2022-12-27T06:17:27.743Z,5.80
2022-12-27T06:18:30.714Z,5.83
2022-12-27T06:19:32.519Z,5.81
2022-12-27T06:20:34.422Z,5.84
2022-12-27T06:21:36.333Z,5.88
2022-12-27T06:22:38.171Z,5.84
2022-12-27T06:23:40.858Z,5.81
2022-12-27T06:24:42.765Z,5.79
2022-12-27T06:25:44.562Z,5.79
2022-12-27T06:26:46.831Z,5.80
2022-12-27T06:27:48.675Z,5.82
2022-12-27T06:28:51.157Z,5.84
2022-12-27T06:29:53.015Z,5.87
2022-12-27T06:30:54.923Z,5.89
2022-12-27T06:31:57.910Z,5.89
2022-12-27T06:32:59.786Z,5.89
2022-12-27T06:34:01.584Z,5.90
2022-12-27T06:35:03.468Z,5.88
2022-12-27T06:36:09.302Z,5.80
2022-12-27T06:37:11.488Z,5.77
2022-12-27T06:38:13.370Z,5.78
2022-12-27T06:39:15.185Z,5.75
2022-12-27T06:40:20.508Z,5.75
2022-12-27T06:41:22.373Z,5.72
2022-12-27T06:42:24.279Z,5.71
2022-12-27T06:43:26.113Z,5.72
2022-12-27T06:44:28.037Z,5.74
2022-12-27T06:45:30.026Z,5.73
2022-12-27T06:46:31.920Z,5.75
2022-12-27T06:47:33.807Z,5.76
2022-12-27T06:48:36.017Z,5.77
2022-12-27T06:49:37.878Z,5.75
2022-12-27T06:50:39.670Z,5.73
2022-12-27T06:51:41.696Z,5.68
2022-12-27T06:52:43.585Z,5.63
2022-12-27T06:53:45.473Z,5.62
2022-12-27T06:54:47.307Z,5.60
2022-12-27T06:55:49.337Z,5.61
2022-12-27T06:56:51.135Z,5.65
2022-12-27T06:57:53.086Z,5.62
2022-12-27T06:58:55.018Z,5.64
2022-12-27T06:59:56.866Z,5.66
2022-12-27T07:00:58.777Z,5.64
2022-12-27T07:02:00.733Z,5.65
2022-12-27T07:03:03.835Z,5.63
2022-12-27T07:04:05.727Z,5.64
2022-12-27T07:05:07.919Z,5.63
2022-12-27T07:06:11.848Z,5.62
2022-12-27T07:07:15.848Z,5.61
2022-12-27T07:08:17.950Z,5.60
2022-12-27T07:09:19.924Z,5.54
2022-12-27T07:10:21.725Z,5.54
2022-12-27T07:11:24.308Z,5.54
2022-12-27T07:12:26.170Z,5.58
2022-12-27T07:13:28.108Z,5.60
2022-12-27T07:14:30.064Z,5.60
2022-12-27T07:15:31.862Z,5.62
2022-12-27T07:16:33.820Z,5.59
2022-12-27T07:17:36.380Z,5.58
2022-12-27T07:18:38.315Z,5.58
2022-12-27T07:19:40.615Z,5.58
2022-12-27T07:20:42.491Z,5.53
2022-12-27T07:21:44.337Z,5.52
2022-12-27T07:22:46.237Z,5.55
2022-12-27T07:23:48.108Z,5.52
2022-12-27T07:24:49.995Z,5.52
2022-12-27T07:25:51.839Z,5.50
2022-12-27T07:26:54.036Z,5.47
2022-12-27T07:27:55.927Z,5.45
2022-12-27T07:28:59.194Z,5.46
2022-12-27T07:30:01.069Z,5.48
2022-12-27T07:31:08.707Z,5.50
2022-12-27T07:32:10.579Z,5.50
2022-12-27T07:33:12.818Z,5.48
2022-12-27T07:34:14.788Z,5.51
2022-12-27T07:35:16.682Z,5.55
2022-12-27T07:36:20.556Z,5.57
2022-12-27T07:37:22.470Z,5.60
2022-12-27T07:38:24.257Z,5.63
2022-12-27T07:39:26.176Z,5.64
2022-12-27T07:40:28.080Z,5.63
2022-12-27T07:41:29.999Z,5.63
2022-12-27T07:42:31.832Z,5.64
2022-12-27T07:43:34.755Z,5.60
2022-12-27T07:44:36.843Z,5.56
2022-12-27T07:45:38.950Z,5.54
2022-12-27T07:46:40.752Z,5.52
2022-12-27T07:47:42.585Z,5.51
2022-12-27T07:48:44.792Z,5.51
2022-12-27T07:49:46.711Z,5.51
2022-12-27T07:50:56.170Z,5.53
2022-12-27T07:51:57.989Z,5.51
2022-12-27T07:52:59.809Z,5.49
2022-12-27T07:54:01.723Z,5.50
2022-12-27T07:55:03.654Z,5.51
2022-12-27T07:56:07.103Z,5.53
2022-12-27T07:57:09.041Z,5.50
2022-12-27T07:58:10.919Z,5.49
2022-12-27T07:59:13.819Z,5.49
2022-12-27T08:00:15.862Z,5.44
2022-12-27T08:01:18.871Z,5.44
2022-12-27T08:02:20.936Z,5.43
2022-12-27T08:03:22.959Z,5.44
2022-12-27T08:04:24.812Z,5.46
2022-12-27T08:05:28.002Z,5.48
2022-12-27T08:06:34.609Z,5.48
2022-12-27T08:07:36.983Z,5.49
2022-12-27T08:08:40.174Z,5.52
2022-12-27T08:09:44.179Z,5.51
2022-12-27T08:10:46.061Z,5.50
2022-12-27T08:11:47.903Z,5.50
2022-12-27T08:12:49.740Z,5.48
2022-12-27T08:13:51.583Z,5.46
2022-12-27T08:14:53.524Z,5.43
2022-12-27T08:15:55.578Z,5.39
2022-12-27T08:16:59.577Z,5.35
2022-12-27T08:18:01.414Z,5.36
2022-12-27T08:19:08.150Z,5.38
2022-12-27T08:20:14.848Z,5.32
2022-12-27T08:21:17.130Z,5.31
2022-12-27T08:22:19.876Z,5.31
2022-12-27T08:23:21.774Z,5.33
2022-12-27T08:24:24.751Z,5.33
2022-12-27T08:25:26.854Z,5.36
2022-12-27T08:26:28.696Z,5.34
2022-12-27T08:27:30.554Z,5.31
2022-12-27T08:28:33.340Z,5.32
2022-12-27T08:29:35.150Z,5.27
2022-12-27T08:30:38.526Z,5.26
2022-12-27T08:31:40.368Z,5.30
2022-12-27T08:32:42.266Z,5.35
2022-12-27T08:33:44.124Z,5.37
2022-12-27T08:34:45.991Z,5.40
2022-12-27T08:35:53.286Z,5.40
2022-12-27T08:36:56.742Z,5.40
2022-12-27T08:38:01.238Z,5.40
2022-12-27T08:39:03.647Z,5.45
2022-12-27T08:40:05.949Z,5.47
2022-12-27T08:41:08.065Z,5.48
2022-12-27T08:42:14.213Z,5.52
2022-12-27T08:43:16.372Z,5.53
2022-12-27T08:44:18.272Z,5.54
2022-12-27T08:45:20.237Z,5.56
2022-12-27T08:46:22.171Z,5.54
2022-12-27T08:47:24.293Z,5.51
2022-12-27T08:48:26.211Z,5.51
2022-12-27T08:49:28.135Z,5.52
2022-12-27T08:50:30.465Z,5.53
2022-12-27T08:51:40.403Z,5.55
2022-12-27T08:52:43.396Z,5.59
2022-12-27T08:53:45.275Z,5.63
2022-12-27T08:54:47.138Z,5.66
2022-12-27T08:55:48.954Z,5.67
2022-12-27T08:56:50.842Z,5.65
2022-12-27T08:57:56.547Z,5.61
2022-12-27T08:58:58.324Z,5.61
2022-12-27T09:00:00.201Z,5.66
2022-12-27T09:01:06.063Z,5.70
2022-12-27T09:02:10.074Z,5.72
2022-12-27T09:03:12.011Z,5.74
2022-12-27T09:04:13.841Z,5.77
2022-12-27T09:05:15.995Z,5.79
2022-12-27T09:06:19.428Z,5.80
2022-12-27T09:07:21.283Z,5.83
2022-12-27T09:08:23.133Z,5.85
2022-12-27T09:09:24.946Z,5.85
2022-12-27T09:10:26.866Z,5.86
2022-12-27T09:11:30.690Z,5.85
2022-12-27T09:12:33.873Z,5.82
2022-12-27T09:13:35.674Z,5.78
2022-12-27T09:14:37.566Z,5.78
2022-12-27T09:15:39.865Z,5.80
2022-12-27T09:16:41.867Z,5.87
2022-12-27T09:17:44.020Z,5.88
2022-12-27T09:18:48.466Z,5.88
2022-12-27T09:19:50.322Z,5.90
2022-12-27T09:20:52.188Z,5.98
2022-12-27T09:21:54.128Z,6.02
2022-12-27T09:22:55.944Z,6.04
2022-12-27T09:23:58.387Z,6.09
2022-12-27T09:25:00.404Z,6.11
2022-12-27T09:26:09.414Z,6.15
2022-12-27T09:27:11.352Z,6.18
2022-12-27T09:28:13.846Z,6.20
2022-12-27T09:29:15.689Z,6.24
2022-12-27T09:30:17.507Z,6.24
2022-12-27T09:31:20.266Z,6.26
2022-12-27T09:32:23.077Z,6.27
2022-12-27T09:33:24.983Z,6.28
2022-12-27T09:34:27.090Z,6.28
2022-12-27T09:35:29.532Z,6.28
2022-12-27T09:36:31.935Z,6.28
2022-12-27T09:37:33.847Z,6.27
2022-12-27T09:38:36.218Z,6.30
2022-12-27T09:39:38.055Z,6.33
2022-12-27T09:40:39.897Z,6.32
2022-12-27T09:43:27.666Z,6.36
2022-12-27T09:44:34.194Z,6.38
2022-12-27T09:45:40.782Z,6.35
2022-12-27T09:46:45.837Z,6.38
2022-12-27T09:47:47.802Z,6.41
2022-12-27T09:48:50.304Z,6.42
2022-12-27T09:50:12.288Z,6.44
2022-12-27T09:51:23.768Z,6.51
2022-12-27T09:52:32.606Z,6.52
2022-12-27T09:53:37.419Z,6.59
2022-12-27T09:54:51.040Z,6.62
2022-12-27T09:55:58.189Z,6.59
2022-12-27T09:57:19.527Z,6.56
2022-12-27T09:58:25.288Z,6.53
2022-12-27T09:59:27.104Z,6.52
2022-12-27T10:00:35.159Z,6.54
2022-12-27T10:01:41.515Z,6.55
2022-12-27T10:02:44.779Z,6.52
2022-12-27T10:03:46.837Z,6.53
2022-12-27T10:06:29.763Z,6.56
2022-12-27T10:07:54.675Z,6.55
2022-12-27T10:09:19.233Z,6.56
2022-12-27T10:10:28.193Z,6.63
2022-12-27T10:11:39.163Z,6.60
2022-12-27T10:12:47.254Z,6.59
2022-12-27T10:13:54.813Z,6.63
2022-12-27T10:15:05.917Z,6.64
2022-12-27T10:16:30.218Z,6.66
2022-12-27T10:17:43.948Z,6.70
2022-12-27T10:18:59.651Z,6.73
2022-12-27T10:20:09.624Z,6.74
2022-12-27T10:21:25.028Z,6.75
2022-12-27T10:22:26.870Z,6.68
2022-12-27T10:23:30.540Z,6.64
2022-12-27T10:24:40.580Z,6.64
2022-12-27T10:25:45.495Z,6.69
2022-12-27T10:26:47.385Z,6.71
2022-12-27T10:27:51.231Z,6.75
2022-12-27T10:29:03.912Z,6.75
2022-12-27T10:30:16.564Z,6.72
2022-12-27T10:31:19.820Z,6.76
2022-12-27T10:32:21.761Z,6.78
2022-12-27T10:33:27.857Z,6.78
2022-12-27T10:34:29.765Z,6.78
2022-12-27T10:35:31.634Z,6.75
2022-12-27T10:36:34.224Z,6.73
2022-12-27T10:37:36.145Z,6.75
2022-12-27T10:38:38.023Z,6.77
2022-12-27T10:39:40.122Z,6.79
2022-12-27T10:40:50.894Z,6.78
2022-12-27T10:42:01.904Z,6.81
2022-12-27T10:43:06.177Z,6.84
2022-12-27T10:44:12.007Z,6.82
2022-12-27T10:45:26.788Z,6.83
2022-12-27T10:46:33.388Z,6.80
2022-12-27T10:47:35.706Z,6.82
2022-12-27T10:49:19.510Z,6.83
2022-12-27T10:50:08.896Z,6.83
2022-12-27T10:51:12.263Z,6.82
2022-12-27T10:52:18.699Z,6.80
2022-12-27T10:53:34.659Z,6.81
2022-12-27T10:54:49.233Z,6.85
2022-12-27T10:55:51.029Z,6.85
2022-12-27T10:56:53.522Z,6.85
2022-12-27T10:57:55.371Z,6.85
2022-12-27T10:59:13.888Z,6.85
2022-12-27T11:00:16.745Z,6.79
2022-12-27T11:01:32.749Z,6.80
2022-12-27T11:02:34.837Z,6.78
2022-12-27T11:03:36.954Z,6.81
2022-12-27T11:04:55.947Z,6.84
2022-12-27T11:06:05.120Z,6.86
2022-12-27T11:07:19.121Z,6.81
2022-12-27T11:08:21.444Z,6.77
2022-12-27T11:09:32.350Z,6.75
2022-12-27T11:10:34.203Z,6.73
2022-12-27T11:11:36.028Z,6.72
2022-12-27T11:12:39.206Z,6.73
2022-12-27T11:13:40.992Z,6.73
2022-12-27T11:15:09.171Z,6.73
2022-12-27T11:16:19.292Z,6.70
2022-12-27T11:17:23.929Z,6.70
2022-12-27T11:18:25.842Z,6.70
2022-12-27T11:19:28.102Z,6.67
2022-12-27T11:20:34.906Z,6.69
2022-12-27T11:21:38.871Z,6.70
2022-12-27T11:22:46.077Z,6.68
2022-12-27T11:23:49.832Z,6.70
2022-12-27T11:24:53.532Z,6.72
2022-12-27T11:26:03.024Z,6.76
2022-12-27T11:27:05.287Z,6.76
2022-12-27T11:28:19.600Z,6.80
2022-12-27T11:29:23.474Z,6.85
2022-12-27T11:30:25.507Z,6.85
2022-12-27T11:31:31.228Z,6.84
2022-12-27T11:32:33.870Z,6.86
2022-12-27T11:33:49.607Z,6.86
2022-12-27T11:34:54.038Z,6.84
2022-12-27T11:35:57.826Z,6.81
2022-12-27T11:37:14.654Z,6.84
2022-12-27T11:38:24.339Z,6.86
2022-12-27T11:39:39.720Z,6.86
2022-12-27T11:40:41.668Z,6.89
2022-12-27T11:41:47.674Z,6.88
2022-12-27T11:42:53.364Z,6.85
2022-12-27T11:43:58.755Z,6.81
2022-12-27T11:45:20.080Z,6.81
2022-12-27T11:46:28.300Z,6.82
2022-12-27T11:47:50.392Z,6.81
2022-12-27T11:48:56.309Z,6.71
2022-12-27T11:50:19.333Z,6.71
2022-12-27T11:51:44.597Z,6.74
2022-12-27T11:52:58.365Z,6.77
2022-12-27T11:54:00.415Z,6.82
2022-12-27T11:55:22.497Z,6.85
2022-12-27T11:56:27.028Z,6.86
2022-12-27T11:57:28.881Z,6.90
2022-12-27T11:58:39.831Z,6.91
2022-12-27T12:00:06.305Z,6.94
2022-12-27T12:01:27.957Z,6.94
2022-12-27T12:02:40.245Z,6.92
2022-12-27T12:03:47.904Z,6.93
2022-12-27T12:04:55.520Z,6.95
2022-12-27T12:05:57.423Z,7.00
2022-12-27T12:07:22.567Z,7.03
2022-12-27T12:08:32.949Z,7.00
2022-12-27T12:09:45.596Z,7.03
2022-12-27T12:10:55.806Z,7.01
2022-12-27T12:11:57.604Z,7.01
2022-12-27T12:13:06.270Z,7.04
2022-12-27T12:14:10.643Z,7.08
2022-12-27T12:15:23.493Z,7.10
2022-12-27T12:16:25.392Z,7.12
2022-12-27T12:17:45.618Z,7.14
2022-12-27T12:18:50.479Z,7.19
2022-12-27T12:19:58.807Z,7.20
2022-12-27T12:21:25.005Z,7.22
2022-12-27T12:22:45.525Z,7.30
2022-12-27T12:24:07.061Z,7.46
2022-12-27T12:25:27.581Z,7.59
2022-12-27T12:26:38.588Z,7.71
2022-12-27T12:28:09.740Z,7.83
2022-12-27T12:29:25.515Z,8.00
2022-12-27T12:30:38.062Z,8.09
2022-12-27T12:31:46.062Z,8.19
2022-12-27T12:32:47.931Z,8.28
2022-12-27T12:34:02.009Z,8.42
2022-12-27T12:35:12.283Z,8.58
2022-12-27T12:36:20.164Z,8.75
2022-12-27T12:37:22.079Z,8.84
2022-12-27T12:38:32.680Z,8.93
2022-12-27T12:39:34.537Z,9.01
2022-12-27T12:40:39.139Z,9.09
2022-12-27T12:41:51.542Z,9.14
2022-12-27T12:43:01.931Z,9.25
2022-12-27T12:44:10.755Z,9.28
2022-12-27T12:45:27.865Z,9.43
2022-12-27T12:46:40.523Z,9.59
2022-12-27T12:47:45.415Z,9.65
2022-12-27T12:48:54.676Z,9.66
2022-12-27T12:50:15.476Z,9.72
2022-12-27T12:51:26.912Z,9.83
2022-12-27T12:52:28.666Z,9.87
2022-12-27T12:53:49.159Z,9.93
2022-12-27T12:55:09.633Z,9.94
2022-12-27T12:56:17.369Z,10.05
2022-12-27T12:57:28.572Z,10.01
2022-12-27T12:58:31.284Z,9.96
2022-12-27T12:59:51.627Z,10.02
2022-12-27T13:01:23.042Z,10.06
2022-12-27T13:02:34.893Z,10.07
2022-12-27T13:03:55.646Z,10.12
2022-12-27T13:05:03.332Z,10.13
2022-12-27T13:06:08.300Z,10.13
2022-12-27T13:07:40.753Z,10.17
2022-12-27T13:09:02.737Z,10.12
2022-12-27T13:10:10.605Z,10.13
2022-12-27T13:11:12.422Z,10.18
2022-12-27T13:12:19.958Z,10.24
2022-12-27T13:13:33.985Z,10.25
2022-12-27T13:14:51.252Z,10.23
2022-12-27T13:16:13.037Z,10.26
2022-12-27T13:17:17.717Z,10.31
2022-12-27T13:18:40.656Z,10.37
2022-12-27T13:19:58.350Z,10.25
2022-12-27T13:21:07.047Z,10.17
2022-12-27T13:22:16.058Z,10.15
2022-12-27T13:23:36.584Z,10.07
2022-12-27T13:24:41.099Z,9.99
2022-12-27T13:25:55.150Z,9.96
2022-12-27T13:26:56.961Z,9.93
2022-12-27T13:27:58.754Z,9.87
2022-12-27T13:29:19.480Z,9.73
2022-12-27T13:30:42.199Z,9.53
2022-12-27T13:31:46.870Z,9.37
2022-12-27T13:33:07.171Z,9.34
2022-12-27T13:34:15.045Z,9.28
2022-12-27T13:35:42.638Z,9.27
2022-12-27T13:36:53.549Z,9.27
2022-12-27T13:37:58.551Z,9.28
2022-12-27T13:39:06.371Z,9.27
2022-12-27T13:40:08.152Z,9.24
2022-12-27T13:41:30.867Z,9.19
2022-12-27T13:42:39.151Z,9.16
2022-12-27T13:43:56.266Z,9.11
2022-12-27T13:45:05.291Z,9.07
2022-12-27T13:46:17.675Z,8.97
2022-12-27T13:47:48.682Z,8.85
2022-12-27T13:48:51.397Z,8.71
2022-12-27T13:50:22.531Z,8.51
2022-12-27T13:51:24.346Z,8.39
2022-12-27T13:52:32.436Z,8.24
2022-12-27T13:53:54.806Z,8.15
2022-12-27T13:55:07.358Z,8.13
2022-12-27T13:56:53.305Z,8.14
2022-12-27T13:58:04.869Z,8.12
2022-12-27T13:59:25.297Z,8.13
2022-12-27T14:00:33.434Z,8.13
2022-12-27T14:01:35.318Z,8.01
2022-12-27T14:02:55.776Z,8.01
2022-12-27T14:04:15.683Z,7.95
2022-12-27T14:05:23.649Z,7.80
2022-12-27T14:06:33.807Z,7.78
2022-12-27T14:07:44.679Z,7.79
2022-12-27T14:09:05.045Z,7.78
2022-12-27T14:10:07.020Z,7.71
2022-12-27T14:11:24.884Z,7.60
2022-12-27T14:12:52.051Z,7.58
2022-12-27T14:13:54.206Z,7.57
2022-12-27T14:14:58.313Z,7.57
2022-12-27T14:16:11.238Z,7.59
2022-12-27T14:17:25.074Z,7.52
2022-12-27T14:18:36.182Z,7.47
2022-12-27T14:19:47.619Z,7.45
2022-12-27T14:21:07.758Z,7.41
2022-12-27T14:22:15.833Z,7.41
2022-12-27T14:23:31.436Z,7.41
2022-12-27T14:24:33.242Z,7.40
2022-12-27T14:25:44.024Z,7.37
2022-12-27T14:27:04.550Z,7.35
2022-12-27T14:28:26.444Z,7.32
2022-12-27T14:29:37.961Z,7.27
2022-12-27T14:30:48.988Z,7.16
2022-12-27T14:32:03.160Z,7.09
2022-12-27T14:33:10.803Z,7.08
2022-12-27T14:34:28.042Z,7.06
2022-12-27T14:35:46.133Z,7.07
2022-12-27T14:37:06.765Z,6.98
2022-12-27T14:38:26.991Z,6.91
2022-12-27T14:39:47.440Z,6.89
2022-12-27T14:41:07.937Z,6.88
2022-12-27T14:42:27.999Z,6.74
2022-12-27T14:43:45.083Z,6.54
2022-12-27T14:44:49.960Z,6.41
2022-12-27T14:45:57.719Z,6.21
2022-12-27T14:47:05.800Z,6.16
2022-12-27T14:48:26.240Z,6.10
2022-12-27T14:49:46.222Z,6.01
2022-12-27T14:51:14.886Z,6.06
2022-12-27T14:52:48.720Z,6.10
2022-12-27T14:53:50.607Z,6.16
2022-12-27T14:55:16.236Z,6.19
2022-12-27T14:56:29.493Z,6.22
2022-12-27T14:57:33.703Z,6.22
2022-12-27T14:58:59.840Z,6.19
2022-12-27T15:00:12.332Z,6.19
2022-12-27T15:01:20.585Z,6.17
2022-12-27T15:02:54.910Z,6.14
2022-12-27T15:03:59.483Z,6.08
2022-12-27T15:05:19.707Z,6.10
2022-12-27T15:06:21.478Z,6.08